Time;durP1;ratioP1;P1;durP2;ratioP2;P2;SDS_P1;SDS_P2;PMS_P1;PMS_P2;Temp;Humidity;BMP_temperature;BMP_pressure;BME280_temperature;BME280_humidity;BME280_pressure;Samples;Min_cycle;Max_cycle;Signal;HPM_P1;HPM_P2
2022/11/10 03:33:35;;;;;;;6.57;1.73;;;14.60;73.50;;;;;;5371259;24;20061;-74
2022/11/10 03:36:06;;;;;;;13.18;2.38;;;14.70;73.80;;;;;;4704383;30;20073;-76
2022/11/10 03:38:35;;;;;;;12.30;1.85;;;14.60;74.10;;;;;;4722010;30;20045;-77
2022/11/10 03:41:01;;;;;;;9.07;1.40;;;14.80;74.40;;;;;;4721452;30;20459;-74
2022/11/10 03:43:26;;;;;;;11.98;1.67;;;15.00;74.30;;;;;;4722026;30;20053;-74
2022/11/10 03:45:52;;;;;;;10.93;1.88;;;15.10;74.00;;;;;;4722449;30;20091;-76
2022/11/10 03:48:18;;;;;;;12.00;2.25;;;15.30;73.90;;;;;;4722211;30;20331;-76
2022/11/10 03:50:43;;;;;;;10.68;2.28;;;15.50;74.00;;;;;;4722314;30;20119;-77
2022/11/10 03:53:09;;;;;;;13.93;1.70;;;15.50;74.00;;;;;;4706879;30;20139;-78
2022/11/10 03:55:35;;;;;;;9.70;1.45;;;15.60;74.10;;;;;;4706570;30;20490;-75
2022/11/10 03:58:02;;;;;;;10.95;2.75;;;15.70;74.20;;;;;;4721929;30;20049;-77
2022/11/10 04:00:28;;;;;;;9.35;1.63;;;15.70;74.20;;;;;;4721526;30;20045;-78
2022/11/10 04:02:54;;;;;;;6.80;1.13;;;15.80;74.20;;;;;;4706820;30;20203;-78
2022/11/10 04:11:02;;;;;;;9.43;1.45;;;15.80;74.60;;;;;;4721605;30;20069;-79
2022/11/10 04:16:12;;;;;;;9.88;1.90;;;15.90;75.00;;;;;;4705845;30;20053;-75
2022/11/10 04:18:38;;;;;;;10.20;1.73;;;15.90;75.10;;;;;;4721518;30;20049;-76
2022/11/10 04:21:03;;;;;;;14.10;1.83;;;15.90;75.30;;;;;;4721838;30;20484;-75
2022/11/10 04:23:35;;;;;;;7.60;1.30;;;15.90;75.40;;;;;;4721270;30;20369;-76
2022/11/10 04:26:30;;;;;;;16.55;1.90;;;16.00;75.70;;;;;;4721393;30;20499;-73
2022/11/10 04:29:01;;;;;;;14.65;1.80;;;16.00;75.90;;;;;;4720744;30;20053;-76
2022/11/10 04:31:31;;;;;;;10.77;2.65;;;16.10;75.40;;;;;;4721768;30;20133;-76
2022/11/10 04:33:57;;;;;;;8.93;2.05;;;16.20;75.00;;;;;;4725042;30;20059;-74
2022/11/10 04:36:28;;;;;;;12.98;1.73;;;16.30;74.50;;;;;;4738953;30;20125;-75
2022/11/10 04:38:55;;;;;;;11.38;2.65;;;16.30;74.10;;;;;;4738669;30;20137;-75
2022/11/10 04:41:22;;;;;;;9.23;2.28;;;16.30;73.80;;;;;;4725885;30;20346;-75
2022/11/10 04:43:48;;;;;;;9.05;2.20;;;16.40;73.50;;;;;;4717664;30;20084;-74
2022/11/10 04:46:22;;;;;;;8.27;1.60;;;16.40;73.30;;;;;;4719418;30;20103;-76
2022/11/10 04:48:48;;;;;;;5.88;1.40;;;16.40;73.20;;;;;;4705596;30;20145;-74
2022/11/10 04:51:15;;;;;;;10.32;2.42;;;16.30;73.20;;;;;;4720833;30;20053;-74
2022/11/10 04:53:41;;;;;;;8.00;1.73;;;16.30;73.20;;;;;;4720954;30;20126;-76
2022/11/10 04:56:08;;;;;;;7.00;1.50;;;16.30;73.30;;;;;;4705389;30;20495;-74
2022/11/10 04:58:34;;;;;;;7.00;2.13;;;16.30;73.30;;;;;;4720940;30;20053;-74
2022/11/10 05:01:00;;;;;;;6.45;1.17;;;16.30;73.40;;;;;;4721098;30;20184;-75
2022/11/10 05:03:25;;;;;;;6.97;2.00;;;16.20;73.40;;;;;;4731274;30;20421;-74
2022/11/10 05:05:51;;;;;;;7.00;1.70;;;16.20;73.50;;;;;;4738159;30;20049;-78
2022/11/10 05:08:17;;;;;;;8.02;1.50;;;16.20;73.60;;;;;;4738276;30;20053;-77
2022/11/10 05:10:42;;;;;;;9.73;1.77;;;16.00;72.90;;;;;;4736777;30;20060;-76
2022/11/10 05:13:09;;;;;;;9.15;1.40;;;15.90;73.40;;;;;;4738445;30;20052;-79
2022/11/10 05:15:34;;;;;;;6.53;1.38;;;15.90;74.00;;;;;;4736619;30;20060;-77
2022/11/10 05:18:00;;;;;;;19.90;1.77;;;15.90;74.20;;;;;;4726653;30;20067;-75
2022/11/10 05:20:31;;;;;;;9.13;1.25;;;15.90;74.20;;;;;;4736373;30;20117;-79
2022/11/10 05:25:43;;;;;;;11.18;1.77;;;15.90;74.70;;;;;;4722121;30;20044;-79
2022/11/10 05:28:12;;;;;;;6.93;1.92;;;15.90;75.00;;;;;;4722595;30;20403;-82
2022/11/10 05:30:38;;;;;;;8.27;1.98;;;15.90;75.30;;;;;;4738012;30;20530;-81
2022/11/10 05:33:05;;;;;;;15.00;2.55;;;15.90;75.40;;;;;;4737763;30;20044;-77
2022/11/10 05:35:32;;;;;;;11.65;2.13;;;15.90;75.00;;;;;;4737407;30;20072;-78
2022/11/10 05:37:57;;;;;;;9.88;1.98;;;15.80;74.50;;;;;;4737765;30;20060;-81
2022/11/10 05:40:24;;;;;;;13.90;2.50;;;15.60;74.50;;;;;;4721528;30;20044;-82
2022/11/10 05:42:54;;;;;;;9.88;1.92;;;15.50;74.70;;;;;;4700802;30;20368;-82
2022/11/10 05:45:22;;;;;;;6.78;1.83;;;15.40;75.10;;;;;;4736738;30;20520;-83
2022/11/10 05:47:48;;;;;;;9.32;1.73;;;15.30;75.40;;;;;;4718018;30;20080;-82
2022/11/10 05:50:15;;;;;;;10.98;1.85;;;15.40;76.00;;;;;;4733622;30;20389;-77
2022/11/10 05:52:50;;;;;;;10.50;1.95;;;15.50;75.80;;;;;;4720229;30;20119;-84
2022/11/10 05:55:26;;;;;;;10.13;1.80;;;15.50;75.20;;;;;;4718736;30;20127;-79
2022/11/10 05:57:54;;;;;;;12.50;3.00;;;15.50;75.70;;;;;;4720177;30;20127;-80
2022/11/10 06:00:23;;;;;;;14.23;2.35;;;15.50;75.10;;;;;;4719754;30;20079;-77
2022/11/10 06:03:12;;;;;;;15.90;2.92;;;15.30;74.20;;;;;;4733258;30;20041;-77
2022/11/10 06:05:38;;;;;;;16.48;2.67;;;15.30;76.00;;;;;;4737243;30;20060;-78
2022/11/10 06:08:07;;;;;;;9.77;2.40;;;15.40;75.90;;;;;;4737264;30;20040;-80
2022/11/10 06:10:34;;;;;;;15.40;2.78;;;15.60;75.90;;;;;;4736824;30;20056;-76
2022/11/10 06:13:00;;;;;;;13.52;2.80;;;15.70;75.20;;;;;;4736810;30;20476;-75
2022/11/10 06:15:26;;;;;;;14.52;2.67;;;15.80;75.60;;;;;;4721837;30;20110;-78
2022/11/10 06:17:52;;;;;;;15.48;2.97;;;15.90;75.50;;;;;;4737113;30;20068;-77
2022/11/10 06:20:18;;;;;;;12.27;2.63;;;16.00;75.70;;;;;;4736782;30;20045;-75
2022/11/10 06:23:02;;;;;;;15.82;3.15;;;16.00;75.70;;;;;;4737065;30;20124;-77
2022/11/10 06:25:33;;;;;;;16.30;3.17;;;16.10;76.10;;;;;;4721506;30;20067;-79
2022/11/10 06:28:00;;;;;;;10.23;2.72;;;16.10;76.30;;;;;;4736992;30;20057;-75
2022/11/10 06:30:27;;;;;;;15.40;3.05;;;16.20;76.60;;;;;;4736953;30;20067;-79
2022/11/10 06:32:53;;;;;;;13.98;2.80;;;16.20;76.60;;;;;;4723006;30;20053;-76
2022/11/10 06:35:19;;;;;;;20.35;2.90;;;16.20;76.70;;;;;;4719179;30;20075;-76
2022/11/10 06:37:45;;;;;;;21.52;3.97;;;16.20;76.50;;;;;;4719820;30;20126;-76
2022/11/10 06:40:15;;;;;;;13.65;2.30;;;16.20;76.20;;;;;;4719345;30;20049;-78
2022/11/10 06:42:40;;;;;;;19.13;3.10;;;16.20;76.00;;;;;;4719678;30;20071;-77
2022/11/10 06:45:07;;;;;;;21.40;4.55;;;16.20;75.90;;;;;;4719358;30;20057;-78
2022/11/10 06:47:32;;;;;;;15.88;3.85;;;16.10;76.00;;;;;;4719261;30;20115;-76
2022/11/10 06:49:58;;;;;;;16.17;2.58;;;16.10;76.10;;;;;;4719914;30;20103;-79
2022/11/10 06:52:24;;;;;;;23.98;2.97;;;16.10;76.40;;;;;;4719585;30;20060;-78
2022/11/10 06:54:49;;;;;;;19.73;3.53;;;16.10;76.60;;;;;;4697271;30;20057;-76
2022/11/10 06:57:15;;;;;;;18.45;4.43;;;16.10;76.70;;;;;;4718653;30;20119;-76
2022/11/10 06:59:41;;;;;;;24.15;3.97;;;16.10;76.90;;;;;;4719351;30;20049;-75
2022/11/10 07:02:13;;;;;;;30.70;5.15;;;16.10;77.00;;;;;;4726503;30;20048;-74
2022/11/10 07:04:38;;;;;;;20.55;4.20;;;16.10;77.20;;;;;;4737277;30;20106;-76
2022/11/10 07:07:04;;;;;;;23.42;4.57;;;16.10;77.30;;;;;;4736216;30;20067;-78
2022/11/10 07:09:30;;;;;;;23.02;5.97;;;16.00;77.30;;;;;;4736659;30;20123;-76
2022/11/10 07:11:56;;;;;;;20.65;3.92;;;16.00;77.30;;;;;;4721212;30;20056;-76
2022/11/10 07:14:21;;;;;;;20.02;4.78;;;16.00;77.30;;;;;;4736860;30;20064;-77
2022/11/10 07:16:47;;;;;;;17.50;4.97;;;16.00;77.30;;;;;;4737238;30;20044;-79
2022/11/10 07:19:13;;;;;;;19.05;4.72;;;16.00;77.30;;;;;;4737265;30;20530;-75
2022/11/10 07:21:41;;;;;;;18.40;5.45;;;16.00;77.20;;;;;;4736846;30;20048;-76
2022/11/10 07:24:07;;;;;;;16.52;5.20;;;16.00;77.20;;;;;;4736475;30;20119;-77
2022/11/10 07:26:32;;;;;;;19.75;5.30;;;16.00;77.20;;;;;;4736580;30;20044;-77
2022/11/10 07:28:58;;;;;;;20.08;5.32;;;16.00;77.10;;;;;;4736527;30;20082;-77
2022/11/10 07:31:24;;;;;;;13.95;4.80;;;15.90;77.00;;;;;;4731868;30;20093;-76
2022/11/10 07:33:50;;;;;;;15.05;4.20;;;15.90;77.00;;;;;;4718723;30;20068;-75
2022/11/10 07:36:15;;;;;;;14.43;4.60;;;15.90;77.00;;;;;;4718796;30;20097;-79
2022/11/10 07:38:41;;;;;;;13.02;4.63;;;15.90;77.00;;;;;;4718727;30;20049;-78
2022/11/10 07:41:07;;;;;;;12.23;4.07;;;15.90;77.00;;;;;;4719464;30;20064;-76
2022/11/10 07:43:37;;;;;;;13.75;4.75;;;15.90;77.00;;;;;;4718890;30;20057;-79
2022/11/10 07:46:05;;;;;;;14.45;4.75;;;15.90;76.90;;;;;;4719494;30;20061;-76
2022/11/10 07:48:31;;;;;;;14.90;5.00;;;15.90;76.90;;;;;;4718300;30;20144;-75
2022/11/10 07:50:57;;;;;;;13.30;4.35;;;15.90;76.80;;;;;;4718914;30;20053;-77
2022/11/10 07:53:23;;;;;;;14.00;4.55;;;15.90;76.80;;;;;;4718162;30;20335;-75
2022/11/10 07:55:49;;;;;;;21.45;5.85;;;15.90;76.80;;;;;;4718774;30;20060;-79
2022/11/10 07:58:16;;;;;;;12.60;4.32;;;16.00;76.90;;;;;;4718674;30;20049;-75
2022/11/10 08:00:43;;;;;;;14.73;4.20;;;15.90;76.80;;;;;;4719109;30;20088;-76
2022/11/10 08:03:17;;;;;;;11.18;4.20;;;15.90;76.80;;;;;;4718542;30;20068;-77
2022/11/10 08:05:43;;;;;;;11.70;3.47;;;15.90;76.80;;;;;;4706856;30;20057;-78
2022/11/10 08:08:09;;;;;;;10.30;3.17;;;15.90;76.80;;;;;;4721801;30;20056;-77
2022/11/10 08:10:36;;;;;;;13.70;4.68;;;15.90;76.90;;;;;;4705404;30;20053;-76
2022/11/10 08:13:05;;;;;;;16.10;4.15;;;15.90;76.90;;;;;;4719788;30;20136;-78
2022/11/10 08:15:32;;;;;;;12.30;3.83;;;15.90;77.00;;;;;;4720768;30;20049;-76
2022/11/10 08:18:14;;;;;;;14.32;3.30;;;15.90;77.10;;;;;;4721177;30;20093;-79
2022/11/10 08:20:40;;;;;;;11.77;3.47;;;15.90;77.00;;;;;;4721404;30;20108;-77
2022/11/10 08:23:06;;;;;;;14.45;3.70;;;15.90;77.00;;;;;;4706168;30;20067;-77
2022/11/10 08:25:34;;;;;;;10.05;3.03;;;15.90;77.00;;;;;;4706251;30;20139;-76
2022/11/10 08:28:01;;;;;;;14.52;3.33;;;15.90;77.20;;;;;;4721704;30;20485;-78
2022/11/10 08:30:27;;;;;;;12.80;3.55;;;15.90;77.30;;;;;;4721411;30;20136;-76
2022/11/10 08:32:58;;;;;;;10.20;3.97;;;15.90;77.20;;;;;;4737767;30;20472;-77
2022/11/10 08:35:28;;;;;;;15.13;3.75;;;15.90;77.30;;;;;;4739029;30;20138;-78
2022/11/10 08:37:54;;;;;;;11.75;2.80;;;15.90;77.30;;;;;;4738417;30;20469;-76
2022/11/10 08:40:21;;;;;;;8.98;3.83;;;15.90;77.30;;;;;;4739536;30;20062;-78
2022/11/10 08:42:47;;;;;;;9.80;3.58;;;15.90;77.40;;;;;;4738596;30;20084;-79
2022/11/10 08:45:14;;;;;;;11.35;3.15;;;15.90;77.30;;;;;;4723811;30;20127;-79
2022/11/10 08:47:39;;;;;;;7.95;2.90;;;15.90;77.00;;;;;;4738316;30;20063;-78
2022/11/10 08:50:06;;;;;;;9.52;2.78;;;15.90;76.90;;;;;;4738793;30;20132;-78
2022/11/10 08:52:32;;;;;;;9.32;3.13;;;15.90;77.00;;;;;;4708896;30;20334;-78
2022/11/10 08:54:58;;;;;;;8.70;2.97;;;16.00;77.00;;;;;;4738528;30;20063;-80
2022/11/10 08:57:24;;;;;;;8.30;3.00;;;15.90;77.10;;;;;;4722625;30;20048;-78
2022/11/10 08:59:49;;;;;;;10.30;2.95;;;15.90;77.10;;;;;;4738168;30;20114;-76
2022/11/10 09:02:15;;;;;;;9.63;3.55;;;15.90;77.00;;;;;;4726407;30;20059;-77
2022/11/10 09:04:41;;;;;;;9.13;3.20;;;15.90;77.00;;;;;;4720880;30;20060;-77
2022/11/10 09:07:07;;;;;;;9.13;3.08;;;15.90;77.00;;;;;;4721216;30;20053;-78
2022/11/10 09:09:32;;;;;;;9.85;3.95;;;15.90;77.00;;;;;;4720954;30;20048;-76
2022/11/10 09:11:58;;;;;;;9.93;3.47;;;15.90;76.90;;;;;;4720712;30;20053;-76
2022/11/10 09:14:24;;;;;;;8.20;3.20;;;15.90;76.90;;;;;;4720424;30;20061;-79
2022/11/10 09:16:49;;;;;;;7.65;3.00;;;15.90;76.90;;;;;;4720709;30;20053;-79
2022/11/10 09:19:15;;;;;;;8.02;3.33;;;15.90;76.80;;;;;;4705022;30;20351;-78
2022/11/10 09:21:41;;;;;;;6.82;3.03;;;15.90;76.80;;;;;;4720898;30;20045;-79
2022/11/10 09:24:06;;;;;;;6.97;2.75;;;15.90;76.70;;;;;;4720789;30;20069;-78
2022/11/10 09:26:33;;;;;;;9.40;3.28;;;15.90;76.70;;;;;;4720278;30;20457;-77
2022/11/10 09:28:58;;;;;;;10.80;3.17;;;15.90;76.70;;;;;;4720660;30;20468;-78
2022/11/10 09:31:24;;;;;;;11.05;3.80;;;15.90;76.70;;;;;;4727566;30;20052;-78
2022/11/10 09:33:50;;;;;;;8.43;3.03;;;15.90;76.70;;;;;;4737926;30;20060;-78
2022/11/10 09:36:15;;;;;;;8.52;3.13;;;15.90;76.70;;;;;;4737422;30;20075;-78
2022/11/10 09:38:41;;;;;;;9.98;2.97;;;15.90;76.70;;;;;;4737350;30;20056;-78
2022/11/10 09:41:10;;;;;;;7.72;3.15;;;15.90;76.70;;;;;;4737964;30;20045;-78
2022/11/10 09:44:02;;;;;;;6.07;2.80;;;15.90;76.70;;;;;;4722950;30;20053;-77
2022/11/10 09:46:35;;;;;;;8.65;3.42;;;15.90;76.60;;;;;;4737903;30;20064;-79
2022/11/10 09:49:16;;;;;;;7.20;2.78;;;15.90;76.60;;;;;;4737761;30;20056;-77
2022/11/10 09:51:44;;;;;;;6.97;3.25;;;15.90;76.60;;;;;;4737286;30;20052;-78
2022/11/10 09:54:19;;;;;;;9.43;3.00;;;15.90;76.60;;;;;;4722181;30;20057;-78
2022/11/10 09:56:44;;;;;;;7.25;2.83;;;15.90;76.60;;;;;;4721430;30;20054;-78
2022/11/10 09:59:23;;;;;;;8.38;3.15;;;15.90;76.60;;;;;;4737290;30;20125;-76
2022/11/10 10:01:58;;;;;;;10.43;3.95;;;15.90;76.50;;;;;;4732521;30;20472;-78
2022/11/10 10:05:05;;;;;;;10.45;3.70;;;15.90;76.50;;;;;;4737009;30;20059;-77
2022/11/10 10:07:40;;;;;;;8.20;2.83;;;15.90;76.40;;;;;;4737113;30;20102;-77
2022/11/10 10:10:24;;;;;;;8.80;3.30;;;15.90;76.40;;;;;;4737127;30;20484;-77
2022/11/10 10:13:27;;;;;;;6.25;2.90;;;15.90;76.50;;;;;;4737060;30;20137;-76
2022/11/10 10:16:19;;;;;;;6.90;2.83;;;15.90;76.40;;;;;;4737350;30;20385;-77
2022/11/10 10:18:58;;;;;;;6.10;3.38;;;15.90;76.40;;;;;;4722002;30;20100;-77
2022/11/10 10:22:01;;;;;;;9.07;3.05;;;15.90;76.40;;;;;;4737486;30;20049;-76
2022/11/10 10:24:29;;;;;;;7.45;3.17;;;15.90;76.30;;;;;;4721479;30;20362;-77
2022/11/10 10:26:57;;;;;;;8.30;2.67;;;15.90;76.30;;;;;;4736161;30;20084;-77
2022/11/10 10:29:43;;;;;;;5.63;2.85;;;15.90;76.20;;;;;;4736706;30;20059;-77
2022/11/10 10:32:12;;;;;;;9.80;3.05;;;15.90;76.10;;;;;;4721525;30;20049;-75
2022/11/10 10:34:40;;;;;;;15.80;3.60;;;15.90;76.10;;;;;;4719348;30;20049;-76
2022/11/10 10:37:19;;;;;;;12.45;3.97;;;15.90;76.10;;;;;;4719330;30;20065;-73
2022/11/10 10:39:49;;;;;;;8.25;2.90;;;16.00;76.10;;;;;;4719320;30;20057;-75
2022/11/10 10:42:37;;;;;;;12.38;3.47;;;15.90;76.00;;;;;;4718677;30;20126;-73
2022/11/10 10:45:21;;;;;;;11.48;3.25;;;15.90;76.00;;;;;;4719145;30;20075;-74
2022/11/10 10:47:50;;;;;;;11.25;3.10;;;15.90;75.90;;;;;;4716822;30;20135;-74
2022/11/10 10:50:32;;;;;;;14.48;3.58;;;16.00;75.90;;;;;;4716985;30;20061;-73
2022/11/10 10:53:17;;;;;;;15.93;3.63;;;16.00;75.90;;;;;;4718939;30;20109;-77
2022/11/10 10:55:58;;;;;;;13.43;3.47;;;16.00;75.90;;;;;;4718761;30;20122;-78
2022/11/10 10:58:28;;;;;;;7.70;2.58;;;16.00;76.00;;;;;;4703654;30;20061;-78
2022/11/10 11:01:00;;;;;;;12.50;3.45;;;15.90;76.20;;;;;;4723787;30;20168;-79
2022/11/10 11:03:38;;;;;;;10.82;3.33;;;15.90;76.30;;;;;;4736387;30;20099;-75
2022/11/10 11:06:19;;;;;;;11.18;2.92;;;15.90;76.40;;;;;;4736399;30;20156;-78
2022/11/10 11:08:58;;;;;;;17.35;3.38;;;15.90;76.40;;;;;;4736476;30;20064;-75
2022/11/10 11:11:32;;;;;;;9.00;2.83;;;16.00;76.50;;;;;;4736366;30;20060;-77
2022/11/10 11:14:30;;;;;;;13.23;3.22;;;16.00;76.50;;;;;;4735705;30;20360;-80
2022/11/10 11:17:12;;;;;;;10.23;2.67;;;16.00;76.40;;;;;;4697253;30;20109;-78
2022/11/10 11:19:38;;;;;;;12.02;3.00;;;16.00;76.40;;;;;;4736379;30;20056;-77
2022/11/10 11:22:25;;;;;;;8.65;2.25;;;16.00;76.40;;;;;;4736365;30;20055;-77
2022/11/10 11:25:33;;;;;;;9.13;1.90;;;16.00;76.30;;;;;;4736347;30;20052;-79
2022/11/10 11:28:23;;;;;;;8.05;2.65;;;16.00;76.30;;;;;;4664966;30;20144;-78
2022/11/10 11:31:03;;;;;;;9.45;2.92;;;16.00;76.30;;;;;;4728807;30;20136;-74
2022/11/10 11:33:43;;;;;;;13.27;4.18;;;16.00;75.90;;;;;;4719171;30;20053;-73
2022/11/10 11:36:21;;;;;;;11.05;3.67;;;15.90;75.10;;;;;;4718529;30;20061;-73
2022/11/10 11:39:01;;;;;;;13.73;3.67;;;15.80;75.20;;;;;;4719679;30;20061;-76
2022/11/10 11:41:52;;;;;;;16.80;3.67;;;15.70;75.70;;;;;;4722372;30;20140;-77
2022/11/10 11:44:47;;;;;;;11.45;3.22;;;15.60;76.00;;;;;;4722313;30;20102;-77
2022/11/10 11:47:34;;;;;;;11.73;3.55;;;15.60;76.30;;;;;;4700070;30;20140;-77
2022/11/10 11:50:17;;;;;;;13.00;3.53;;;15.60;76.40;;;;;;4722304;30;20088;-78
2022/11/10 11:52:58;;;;;;;14.38;3.38;;;15.60;76.30;;;;;;4722089;30;20145;-77
2022/11/10 11:55:43;;;;;;;12.23;3.05;;;15.70;76.30;;;;;;4721438;30;20068;-80
2022/11/10 11:58:32;;;;;;;14.07;2.78;;;15.70;76.30;;;;;;4705440;30;20060;-78
2022/11/10 12:01:19;;;;;;;8.43;2.15;;;15.70;76.30;;;;;;4718456;30;20060;-78
2022/11/10 12:04:03;;;;;;;11.60;3.33;;;15.70;76.20;;;;;;4739435;30;20060;-78
2022/11/10 12:06:47;;;;;;;8.88;2.72;;;15.70;76.20;;;;;;4724034;30;20056;-78
2022/11/10 12:09:39;;;;;;;7.10;2.45;;;15.80;76.20;;;;;;4739637;30;20145;-77
2022/11/10 12:12:07;;;;;;;8.90;2.40;;;15.80;76.20;;;;;;4726743;30;20075;-78
2022/11/10 12:15:18;;;;;;;7.78;1.90;;;15.80;76.10;;;;;;4724017;30;20080;-79
2022/11/10 12:17:56;;;;;;;7.53;2.08;;;15.80;76.00;;;;;;4739584;30;20130;-80
2022/11/10 12:20:49;;;;;;;6.72;2.28;;;15.80;76.00;;;;;;4722898;30;20053;-80
2022/11/10 12:24:05;;;;;;;7.80;2.17;;;15.80;76.00;;;;;;4738811;30;20474;-79
2022/11/10 12:26:44;;;;;;;6.30;2.20;;;15.80;76.00;;;;;;4708479;30;20453;-78
2022/11/10 12:29:35;;;;;;;8.05;2.38;;;15.80;76.00;;;;;;4738903;30;20432;-78
2022/11/10 12:32:31;;;;;;;8.35;1.90;;;15.80;75.90;;;;;;4739174;30;20067;-78
2022/11/10 12:35:02;;;;;;;9.50;2.75;;;15.80;75.90;;;;;;4738548;30;20044;-79
2022/11/10 12:37:52;;;;;;;6.72;2.40;;;15.80;76.00;;;;;;4738862;30;20067;-79
2022/11/10 12:40:29;;;;;;;7.60;2.40;;;15.80;75.90;;;;;;4723412;30;20057;-78
2022/11/10 12:43:00;;;;;;;8.07;1.85;;;15.90;76.00;;;;;;4738633;30;20052;-81
2022/11/10 12:45:45;;;;;;;7.85;2.22;;;15.80;76.00;;;;;;4738143;30;20127;-82
2022/11/10 12:48:14;;;;;;;9.73;2.53;;;15.90;76.10;;;;;;4708270;30;20080;-80
2022/11/10 12:51:07;;;;;;;9.60;2.33;;;15.90;76.10;;;;;;4718504;30;20049;-77
2022/11/10 12:53:42;;;;;;;8.48;2.83;;;15.80;76.00;;;;;;4720830;30;20053;-80
2022/11/10 12:56:23;;;;;;;7.05;2.13;;;15.90;76.10;;;;;;4705677;30;20499;-79
2022/11/10 12:59:18;;;;;;;5.20;1.65;;;15.90;76.00;;;;;;4735016;30;20152;-79
2022/11/10 13:01:46;;;;;;;8.27;1.83;;;15.80;75.90;;;;;;4734961;30;20057;-78
2022/11/10 13:04:16;;;;;;;7.57;2.03;;;15.90;76.10;;;;;;4721332;30;20056;-80
2022/11/10 13:06:52;;;;;;;9.15;2.08;;;15.80;75.90;;;;;;4721187;30;20089;-79
2022/11/10 13:09:26;;;;;;;6.57;2.35;;;15.80;76.00;;;;;;4720919;30;20429;-78
2022/11/10 13:12:17;;;;;;;6.50;2.22;;;15.90;76.00;;;;;;4720872;30;20072;-81
2022/11/10 13:14:44;;;;;;;7.93;1.92;;;15.90;75.90;;;;;;4714427;30;20140;-80
2022/11/10 13:17:26;;;;;;;7.93;2.00;;;15.80;75.90;;;;;;4720576;30;20041;-79
2022/11/10 13:19:54;;;;;;;5.22;1.60;;;15.80;75.90;;;;;;4690960;30;20068;-81
2022/11/10 13:22:38;;;;;;;7.05;1.73;;;15.80;75.90;;;;;;4735850;30;20096;-78
2022/11/10 13:25:35;;;;;;;5.70;2.10;;;15.80;75.90;;;;;;4722519;30;20052;-80
2022/11/10 13:28:01;;;;;;;6.15;2.22;;;15.80;75.90;;;;;;4738168;30;20130;-78
2022/11/10 13:30:45;;;;;;;6.57;1.73;;;15.80;75.90;;;;;;4737958;30;20056;-79
2022/11/10 13:33:34;;;;;;;6.90;1.50;;;15.80;75.90;;;;;;4737834;30;20065;-78
2022/11/10 13:36:00;;;;;;;4.82;1.83;;;15.80;75.90;;;;;;4723041;30;20068;-80
2022/11/10 13:38:31;;;;;;;4.90;1.70;;;15.90;76.00;;;;;;4737892;30;20096;-80
2022/11/10 13:41:15;;;;;;;7.10;2.15;;;15.80;75.90;;;;;;4738197;30;20444;-80
2022/11/10 13:43:55;;;;;;;5.57;1.95;;;15.80;75.90;;;;;;4737884;30;20418;-75
2022/11/10 13:46:34;;;;;;;11.18;2.30;;;15.80;75.90;;;;;;4737963;30;20369;-75
2022/11/10 13:49:03;;;;;;;10.35;1.75;;;15.90;76.20;;;;;;4737821;30;20061;-77
2022/11/10 13:51:37;;;;;;;9.13;1.65;;;15.80;76.30;;;;;;4725042;30;20061;-74
2022/11/10 13:54:08;;;;;;;7.35;1.60;;;15.80;76.40;;;;;;4733485;30;20477;-75
2022/11/10 13:57:08;;;;;;;9.60;2.13;;;15.80;76.30;;;;;;4720040;30;20056;-75
2022/11/10 13:59:48;;;;;;;8.05;2.00;;;15.90;76.40;;;;;;4732207;30;20048;-75
2022/11/10 14:02:37;;;;;;;5.30;1.70;;;16.00;76.30;;;;;;4724394;30;20060;-80
2022/11/10 14:05:05;;;;;;;6.47;1.75;;;16.00;76.50;;;;;;4699154;30;20148;-77
2022/11/10 14:07:38;;;;;;;13.63;2.10;;;16.10;76.50;;;;;;4701386;30;20092;-77
2022/11/10 14:10:11;;;;;;;6.53;2.15;;;16.10;76.50;;;;;;4702350;30;20057;-76
2022/11/10 14:12:47;;;;;;;5.95;2.30;;;16.10;76.60;;;;;;4702682;30;20057;-76
2022/11/10 14:15:38;;;;;;;7.72;1.83;;;16.20;76.90;;;;;;4702396;30;20057;-75
2022/11/10 14:18:19;;;;;;;8.27;1.63;;;16.20;77.10;;;;;;4715755;30;20061;-75
2022/11/10 14:20:46;;;;;;;8.88;2.22;;;16.20;77.00;;;;;;4702996;30;20173;-74
2022/11/10 14:23:35;;;;;;;11.52;2.30;;;16.30;77.10;;;;;;4701866;30;20140;-78
2022/11/10 14:26:27;;;;;;;8.50;2.15;;;16.30;77.20;;;;;;4702361;30;20061;-76
2022/11/10 14:28:53;;;;;;;7.63;2.22;;;16.30;77.40;;;;;;4697328;30;20061;-77
2022/11/10 14:31:22;;;;;;;7.32;1.98;;;16.30;77.20;;;;;;4708115;30;20118;-75
2022/11/10 14:33:57;;;;;;;13.10;2.50;;;16.30;77.30;;;;;;4721878;30;20052;-77
2022/11/10 14:36:24;;;;;;;21.02;3.28;;;16.30;77.30;;;;;;4736662;30;20061;-75
2022/11/10 14:38:51;;;;;;;10.18;2.08;;;16.40;77.30;;;;;;4737190;30;20097;-75
2022/11/10 14:41:19;;;;;;;18.42;2.50;;;16.30;77.40;;;;;;4736752;30;20053;-77
2022/11/10 14:44:05;;;;;;;17.23;3.00;;;16.30;77.50;;;;;;4736827;30;20056;-76
2022/11/10 14:46:31;;;;;;;14.85;2.38;;;16.30;77.30;;;;;;4736856;30;20053;-77
2022/11/10 14:48:59;;;;;;;20.35;3.67;;;16.30;77.50;;;;;;4736824;30;20066;-74
2022/11/10 14:51:28;;;;;;;12.23;1.92;;;16.30;77.50;;;;;;4737112;30;20063;-74
2022/11/10 14:53:56;;;;;;;11.98;2.17;;;16.30;77.50;;;;;;4721164;30;20476;-74
2022/11/10 14:56:25;;;;;;;11.75;2.20;;;16.20;77.40;;;;;;4736967;30;20053;-75
2022/11/10 14:58:51;;;;;;;10.88;2.30;;;16.30;77.50;;;;;;4737305;30;20056;-75
2022/11/10 15:01:37;;;;;;;11.18;1.83;;;16.20;77.50;;;;;;4734474;30;20061;-76
2022/11/10 15:04:06;;;;;;;11.43;2.13;;;16.30;77.40;;;;;;4704063;30;20060;-76
2022/11/10 15:06:33;;;;;;;13.18;1.90;;;16.30;77.40;;;;;;4718743;30;20120;-77
2022/11/10 15:09:14;;;;;;;19.95;2.55;;;16.20;77.20;;;;;;4718840;30;20061;-75
2022/11/10 15:11:48;;;;;;;17.20;2.78;;;16.20;77.30;;;;;;4719703;30;20060;-79
2022/11/10 15:14:33;;;;;;;15.10;2.75;;;16.10;77.40;;;;;;4721310;30;20053;-74
2022/11/10 15:17:04;;;;;;;12.10;2.53;;;16.10;77.60;;;;;;4722664;30;20053;-75
2022/11/10 15:19:45;;;;;;;8.85;2.22;;;16.00;77.80;;;;;;4722431;30;20045;-74
2022/11/10 15:22:28;;;;;;;12.80;2.53;;;16.00;77.80;;;;;;4722480;30;20140;-72
2022/11/10 15:24:55;;;;;;;17.52;3.70;;;15.90;78.00;;;;;;4722475;30;20044;-72
2022/11/10 15:27:31;;;;;;;15.30;3.33;;;16.00;77.70;;;;;;4722548;30;20481;-73
2022/11/10 15:29:59;;;;;;;12.52;2.65;;;16.00;77.30;;;;;;4722312;30;20053;-75
2022/11/10 15:32:41;;;;;;;16.65;3.05;;;15.90;77.20;;;;;;4719491;30;20507;-74
2022/11/10 15:35:23;;;;;;;18.70;3.45;;;15.90;77.60;;;;;;4739991;30;20168;-78
2022/11/10 15:38:06;;;;;;;15.43;3.05;;;15.90;77.80;;;;;;4739662;30;20064;-78
2022/11/10 15:41:04;;;;;;;14.45;3.22;;;15.90;77.90;;;;;;4739998;30;20060;-77
2022/11/10 15:43:30;;;;;;;17.38;3.95;;;15.90;77.90;;;;;;4723748;30;20065;-71
2022/11/10 15:46:12;;;;;;;19.33;3.53;;;16.00;78.00;;;;;;4737719;30;20056;-80
2022/11/10 15:48:41;;;;;;;19.42;3.83;;;16.10;78.00;;;;;;4739399;30;20500;-74
2022/11/10 15:51:12;;;;;;;18.42;3.45;;;16.20;77.80;;;;;;4739238;30;20497;-73
2022/11/10 15:53:44;;;;;;;23.58;3.55;;;16.30;77.80;;;;;;4739290;30;20071;-73
2022/11/10 15:56:16;;;;;;;14.45;2.75;;;16.40;77.60;;;;;;4739637;30;20172;-75
2022/11/10 15:58:47;;;;;;;13.95;2.47;;;16.40;77.50;;;;;;4739601;30;20091;-74
2022/11/10 16:01:14;;;;;;;17.13;2.67;;;16.40;77.40;;;;;;4736680;30;20128;-74
2022/11/10 16:03:40;;;;;;;12.23;2.53;;;16.40;77.50;;;;;;4739446;30;20052;-75
2022/11/10 16:06:08;;;;;;;11.48;2.60;;;16.50;77.50;;;;;;4739295;30;20040;-72
2022/11/10 16:08:34;;;;;;;11.10;2.72;;;16.50;77.50;;;;;;4739318;30;20045;-74
2022/11/10 16:11:00;;;;;;;14.43;2.92;;;16.50;77.50;;;;;;4739956;30;20111;-72
2022/11/10 16:13:29;;;;;;;11.73;2.80;;;16.50;77.10;;;;;;4739524;30;20144;-73
2022/11/10 16:15:56;;;;;;;14.27;2.67;;;16.50;76.80;;;;;;4739087;30;20052;-70
2022/11/10 16:18:25;;;;;;;12.35;2.70;;;16.50;76.20;;;;;;4723911;30;20068;-76
2022/11/10 16:20:51;;;;;;;11.80;3.55;;;16.40;76.10;;;;;;4739250;30;20118;-76
2022/11/10 16:23:17;;;;;;;13.98;2.58;;;16.40;76.30;;;;;;4739363;30;20053;-75
2022/11/10 16:25:45;;;;;;;17.05;3.42;;;16.40;76.40;;;;;;4738056;30;20639;-79
2022/11/10 16:28:19;;;;;;;11.55;2.20;;;16.40;76.60;;;;;;4738812;30;20045;-77
2022/11/10 16:30:45;;;;;;;16.67;4.05;;;16.30;76.80;;;;;;4736017;30;20049;-78
2022/11/10 16:33:16;;;;;;;15.25;3.30;;;16.30;77.00;;;;;;4706226;30;20079;-78
2022/11/10 16:35:42;;;;;;;15.82;2.85;;;16.40;77.30;;;;;;4721534;30;20085;-78
2022/11/10 16:38:18;;;;;;;21.25;3.25;;;16.40;77.50;;;;;;4720979;30;20068;-77
2022/11/10 16:40:45;;;;;;;13.85;2.35;;;16.30;77.20;;;;;;4721343;30;20199;-78
2022/11/10 16:43:16;;;;;;;14.43;2.90;;;16.30;77.30;;;;;;4706305;30;20061;-78
2022/11/10 16:45:45;;;;;;;17.85;2.67;;;16.20;77.40;;;;;;4706112;30;20057;-81
2022/11/10 16:48:16;;;;;;;13.55;2.88;;;16.20;77.80;;;;;;4721542;30;20433;-76
2022/11/10 16:50:44;;;;;;;12.80;2.83;;;16.20;78.10;;;;;;4721210;30;20053;-78
2022/11/10 16:53:16;;;;;;;13.43;2.92;;;16.30;78.40;;;;;;4720971;30;20056;-78